createdAt,value
2022-07-26T00:01:15.327Z,6.70
2022-07-26T00:03:42.241Z,6.20
2022-07-26T00:06:09.376Z,6.30
2022-07-26T00:08:36.283Z,6.30
2022-07-26T00:11:07.061Z,6.70
2022-07-26T00:13:35.267Z,6.80
2022-07-26T00:16:03.606Z,7.00
2022-07-26T00:18:30.390Z,7.70
2022-07-26T00:20:57.447Z,7.10
2022-07-26T00:23:24.861Z,7.30
2022-07-26T00:25:51.393Z,6.30
2022-07-26T00:28:17.946Z,6.70
2022-07-26T00:30:44.698Z,7.50
2022-07-26T00:33:11.310Z,7.60
2022-07-26T00:35:38.014Z,7.60
2022-07-26T00:38:04.690Z,7.10
2022-07-26T00:40:31.589Z,7.40
2022-07-26T00:42:58.214Z,7.70
2022-07-26T00:45:25.131Z,7.10
2022-07-26T00:47:51.691Z,6.90
2022-07-26T00:50:19.843Z,7.40
2022-07-26T00:52:48.638Z,6.50
2022-07-26T00:55:16.393Z,6.40
2022-07-26T00:57:44.174Z,6.60
2022-07-26T01:00:16.076Z,5.90
2022-07-26T01:02:43.420Z,6.80
2022-07-26T01:05:10.971Z,6.70
2022-07-26T01:07:39.048Z,6.60
2022-07-26T01:10:09.625Z,6.20
2022-07-26T01:12:36.673Z,6.70
2022-07-26T01:15:03.629Z,6.80
2022-07-26T01:17:30.285Z,6.90
2022-07-26T01:19:56.983Z,7.10
2022-07-26T01:22:23.574Z,6.90
2022-07-26T01:24:50.172Z,6.70
2022-07-26T01:27:16.868Z,7.00
2022-07-26T01:29:43.734Z,6.90
2022-07-26T01:32:10.407Z,6.90
2022-07-26T01:34:37.272Z,6.90
2022-07-26T01:37:04.001Z,7.00
2022-07-26T01:39:30.648Z,7.40
2022-07-26T01:41:57.493Z,7.10
2022-07-26T01:44:25.058Z,7.20
2022-07-26T01:46:51.702Z,6.60
2022-07-26T01:49:18.309Z,7.00
2022-07-26T01:51:45.195Z,6.90
2022-07-26T01:54:12.507Z,7.30
2022-07-26T01:56:39.319Z,7.00
2022-07-26T01:59:06.139Z,7.10
2022-07-26T02:01:38.728Z,7.10
2022-07-26T02:04:09.152Z,7.00
2022-07-26T02:06:36.106Z,6.90
2022-07-26T02:09:05.279Z,6.80
2022-07-26T02:11:34.415Z,7.00
2022-07-26T02:14:01.064Z,6.60
2022-07-26T02:16:27.728Z,6.20
2022-07-26T02:18:54.479Z,6.60
2022-07-26T02:21:21.132Z,6.00
2022-07-26T02:23:47.838Z,7.20
2022-07-26T02:26:14.485Z,6.50
2022-07-26T02:28:41.430Z,6.20
2022-07-26T02:31:08.041Z,6.90
2022-07-26T02:33:35.005Z,7.10
2022-07-26T02:36:01.665Z,6.70
2022-07-26T02:38:28.304Z,7.30
2022-07-26T02:40:55.057Z,7.50
2022-07-26T02:43:22.164Z,7.70
2022-07-26T02:46:01.138Z,7.00
2022-07-26T02:48:28.952Z,6.70
2022-07-26T02:50:55.771Z,6.90
2022-07-26T02:53:22.340Z,7.30
2022-07-26T02:55:49.052Z,7.30
2022-07-26T02:58:15.629Z,7.20
2022-07-26T03:00:42.174Z,7.70
2022-07-26T03:03:08.970Z,7.60
2022-07-26T03:05:35.765Z,6.90
2022-07-26T03:08:02.503Z,6.60
2022-07-26T03:10:29.524Z,6.70
2022-07-26T03:12:56.999Z,6.20
2022-07-26T03:15:23.711Z,7.30
2022-07-26T03:17:50.795Z,6.60
2022-07-26T03:20:17.521Z,6.70
2022-07-26T03:22:44.284Z,6.70
2022-07-26T03:25:11.036Z,6.50
2022-07-26T03:27:37.654Z,7.00
2022-07-26T03:30:06.294Z,7.10
2022-07-26T03:32:33.137Z,6.50
2022-07-26T03:34:59.949Z,7.10
2022-07-26T03:37:26.802Z,6.80
2022-07-26T03:40:14.861Z,7.20
2022-07-26T03:42:41.595Z,6.90
2022-07-26T03:45:09.494Z,6.50
2022-07-26T03:47:36.519Z,6.20
2022-07-26T03:50:07.717Z,5.90
2022-07-26T03:55:00.911Z,5.80
2022-07-26T03:57:28.212Z,5.80
2022-07-26T03:59:55.509Z,6.20
2022-07-26T04:02:22.468Z,5.70
2022-07-26T04:04:49.391Z,5.70
2022-07-26T04:07:16.213Z,5.70
2022-07-26T04:09:43.056Z,5.70
2022-07-26T04:12:09.802Z,5.20
2022-07-26T04:14:36.407Z,5.00
2022-07-26T04:17:03.191Z,4.70
2022-07-26T04:19:29.844Z,4.90
2022-07-26T04:21:56.374Z,5.00
2022-07-26T04:24:25.559Z,4.60
2022-07-26T04:26:52.677Z,4.40
2022-07-26T04:29:19.188Z,4.10
2022-07-26T04:31:45.837Z,4.30
2022-07-26T04:34:12.460Z,4.30
2022-07-26T04:36:39.313Z,3.90
2022-07-26T04:39:06.056Z,3.90
2022-07-26T04:41:32.826Z,4.50
2022-07-26T04:43:59.446Z,4.20
2022-07-26T04:46:26.243Z,4.10
2022-07-26T04:48:52.968Z,4.70
2022-07-26T04:51:19.991Z,4.10
2022-07-26T04:53:46.634Z,3.90
2022-07-26T04:56:13.202Z,3.80
2022-07-26T04:58:39.841Z,4.00
2022-07-26T05:01:10.973Z,4.10
2022-07-26T05:03:39.158Z,4.00
2022-07-26T05:06:06.105Z,3.90
2022-07-26T05:08:33.223Z,4.00
2022-07-26T05:10:59.893Z,3.90
2022-07-26T05:13:30.100Z,4.20
2022-07-26T05:15:58.142Z,4.00
2022-07-26T05:18:25.183Z,4.00
2022-07-26T05:20:52.617Z,3.70
2022-07-26T05:23:20.702Z,3.90
2022-07-26T05:25:47.751Z,3.70
2022-07-26T05:28:15.023Z,3.60
2022-07-26T05:30:41.732Z,3.70
2022-07-26T05:33:08.338Z,3.40
2022-07-26T05:35:35.221Z,3.40
2022-07-26T05:38:02.291Z,3.50
2022-07-26T05:40:29.330Z,3.90
2022-07-26T05:42:55.963Z,3.60
2022-07-26T05:45:23.031Z,3.50
2022-07-26T05:47:51.346Z,4.00
2022-07-26T05:50:18.119Z,4.00
2022-07-26T05:52:44.902Z,3.30
2022-07-26T05:55:12.216Z,3.60
2022-07-26T05:57:39.105Z,4.20
2022-07-26T06:00:06.902Z,3.70
2022-07-26T06:02:34.571Z,3.50
2022-07-26T06:05:01.237Z,3.40
2022-07-26T06:07:28.035Z,3.90
2022-07-26T06:09:54.778Z,3.80
2022-07-26T06:12:21.335Z,4.90
2022-07-26T06:14:48.112Z,3.80
2022-07-26T06:17:14.728Z,3.90
2022-07-26T06:19:47.113Z,4.00
2022-07-26T06:22:14.543Z,3.40
2022-07-26T06:24:41.201Z,3.90
2022-07-26T06:27:07.928Z,3.60
2022-07-26T06:29:34.581Z,3.80
2022-07-26T06:32:01.198Z,3.50
2022-07-26T06:34:28.231Z,3.60
2022-07-26T06:36:55.122Z,3.90
2022-07-26T06:39:21.784Z,3.80
2022-07-26T06:41:48.977Z,3.80
2022-07-26T06:44:15.752Z,3.50
2022-07-26T06:46:42.348Z,3.90
2022-07-26T06:49:09.112Z,3.50
2022-07-26T06:51:35.912Z,3.40
2022-07-26T06:54:02.657Z,3.80
2022-07-26T06:56:29.197Z,3.20
2022-07-26T06:58:55.839Z,3.50
2022-07-26T07:01:51.530Z,3.60
2022-07-26T07:04:09.370Z,3.20
2022-07-26T07:06:36.407Z,3.30
2022-07-26T07:09:03.190Z,2.90
2022-07-26T07:11:29.833Z,3.50
2022-07-26T07:13:56.387Z,3.20
2022-07-26T07:16:23.161Z,3.40
2022-07-26T07:18:50.262Z,3.00
2022-07-26T07:21:17.206Z,3.30
2022-07-26T07:23:43.864Z,3.60
2022-07-26T07:26:10.509Z,3.90
2022-07-26T07:28:37.089Z,3.30
2022-07-26T07:31:04.576Z,3.60
2022-07-26T07:33:32.102Z,3.70
2022-07-26T07:36:03.829Z,3.40
2022-07-26T07:38:30.476Z,3.50
2022-07-26T07:40:57.550Z,3.10
2022-07-26T07:43:24.117Z,3.40
2022-07-26T07:45:51.007Z,3.40
2022-07-26T07:48:18.200Z,2.80
2022-07-26T07:50:45.320Z,2.70
2022-07-26T07:53:11.890Z,3.20
2022-07-26T07:55:41.070Z,3.20
2022-07-26T07:58:10.982Z,3.30
2022-07-26T08:00:37.857Z,3.40
2022-07-26T08:03:05.489Z,3.70
2022-07-26T08:05:32.106Z,3.50
2022-07-26T08:07:58.806Z,3.70
2022-07-26T08:10:25.728Z,3.20
2022-07-26T08:12:52.347Z,5.20
2022-07-26T08:15:19.282Z,3.80
2022-07-26T08:17:51.098Z,3.60
2022-07-26T08:20:20.995Z,3.40
2022-07-26T08:22:50.500Z,3.00
2022-07-26T08:25:17.485Z,3.20
2022-07-26T08:27:51.088Z,3.30
2022-07-26T08:30:30.089Z,3.60
2022-07-26T08:32:56.834Z,3.40
2022-07-26T08:35:23.700Z,3.00
2022-07-26T08:37:50.739Z,3.20
2022-07-26T08:40:18.090Z,3.20
2022-07-26T08:42:52.835Z,3.40
2022-07-26T08:45:30.941Z,3.20
2022-07-26T08:50:45.856Z,3.70
2022-07-26T08:53:13.385Z,4.00
2022-07-26T08:56:05.469Z,3.40
2022-07-26T08:58:26.954Z,3.50
2022-07-26T09:01:05.337Z,3.40
2022-07-26T09:03:32.589Z,3.70
2022-07-26T09:06:12.088Z,3.80
2022-07-26T09:08:38.668Z,3.60
2022-07-26T09:11:38.071Z,3.80
2022-07-26T09:16:36.226Z,4.30
2022-07-26T09:19:20.797Z,4.70
2022-07-26T09:21:47.908Z,5.00
2022-07-26T09:24:35.944Z,5.30
2022-07-26T09:27:05.267Z,5.20
2022-07-26T09:29:43.091Z,5.60
2022-07-26T09:32:12.956Z,5.20
2022-07-26T09:34:52.064Z,5.40
2022-07-26T09:37:33.165Z,5.10
2022-07-26T09:40:01.528Z,6.00
2022-07-26T09:42:29.719Z,5.60
2022-07-26T09:44:58.174Z,5.90
2022-07-26T09:47:41.100Z,6.10
2022-07-26T09:50:23.596Z,6.60
2022-07-26T09:53:12.734Z,6.60
2022-07-26T09:55:45.565Z,6.10
2022-07-26T09:58:17.527Z,7.20
2022-07-26T10:00:44.785Z,6.70
2022-07-26T10:03:12.244Z,7.00
2022-07-26T10:05:39.911Z,7.90
2022-07-26T10:08:07.788Z,8.10
2022-07-26T10:10:49.890Z,7.80
2022-07-26T10:13:17.585Z,7.90
2022-07-26T10:15:50.339Z,7.80
2022-07-26T10:18:39.222Z,8.90
2022-07-26T10:24:03.741Z,9.30
2022-07-26T10:26:33.423Z,8.90
2022-07-26T10:29:20.574Z,8.90
2022-07-26T10:32:15.246Z,9.10
2022-07-26T10:34:42.217Z,9.40
2022-07-26T10:37:12.044Z,11.40
2022-07-26T10:39:39.950Z,10.60
2022-07-26T10:42:11.126Z,10.30
2022-07-26T10:44:40.334Z,11.00
2022-07-26T10:47:06.963Z,11.10
2022-07-26T10:49:58.193Z,11.00
2022-07-26T10:52:29.976Z,11.10
2022-07-26T10:54:56.486Z,11.80
2022-07-26T10:57:37.796Z,12.60
2022-07-26T11:00:09.974Z,12.30
2022-07-26T11:02:36.836Z,14.50
2022-07-26T11:05:07.371Z,12.20
2022-07-26T11:10:14.165Z,14.70
2022-07-26T11:12:41.077Z,14.10
2022-07-26T11:15:18.779Z,14.90
2022-07-26T11:17:45.351Z,16.10
2022-07-26T11:20:29.253Z,15.00
2022-07-26T11:22:56.835Z,16.50
2022-07-26T11:25:23.575Z,17.50
2022-07-26T11:28:07.155Z,18.40
2022-07-26T11:30:35.088Z,20.70
2022-07-26T11:33:01.733Z,19.90
2022-07-26T11:35:29.778Z,21.40
2022-07-26T11:38:07.851Z,21.10
2022-07-26T11:40:45.643Z,21.30
2022-07-26T11:43:12.277Z,23.30
2022-07-26T11:45:39.405Z,23.80
2022-07-26T11:48:07.813Z,25.30
2022-07-26T11:50:34.438Z,27.90
2022-07-26T11:53:00.987Z,27.80
2022-07-26T11:55:31.416Z,28.70
2022-07-26T11:58:05.225Z,30.70
2022-07-26T12:00:32.450Z,28.10
2022-07-26T12:02:59.206Z,30.50
2022-07-26T12:05:27.629Z,27.80
2022-07-26T12:07:55.272Z,26.70
2022-07-26T12:10:22.404Z,25.80
2022-07-26T12:12:49.173Z,24.60
2022-07-26T12:15:15.989Z,26.60
2022-07-26T12:17:59.643Z,24.00
2022-07-26T12:20:26.204Z,21.70
2022-07-26T12:22:57.819Z,21.50
2022-07-26T12:25:26.105Z,21.70
2022-07-26T12:27:52.850Z,22.40
2022-07-26T12:30:20.415Z,20.60
2022-07-26T12:32:48.385Z,22.90
2022-07-26T12:35:17.593Z,19.10
2022-07-26T12:37:47.097Z,19.40
2022-07-26T12:40:28.279Z,19.10
2022-07-26T12:43:01.310Z,20.40
2022-07-26T12:45:34.819Z,18.60
2022-07-26T12:48:03.565Z,17.80
2022-07-26T12:50:31.001Z,15.30
2022-07-26T12:53:04.516Z,16.80
2022-07-26T12:55:31.749Z,17.50
2022-07-26T12:57:58.648Z,16.10
2022-07-26T13:00:25.500Z,15.60
2022-07-26T13:02:52.679Z,15.30
2022-07-26T13:05:19.404Z,15.60
2022-07-26T13:07:46.317Z,15.20
2022-07-26T13:12:59.792Z,15.20
2022-07-26T13:15:37.387Z,13.40
2022-07-26T13:18:08.510Z,15.20
2022-07-26T13:20:38.655Z,14.80
2022-07-26T13:23:06.869Z,16.10
2022-07-26T13:25:39.848Z,16.10
2022-07-26T13:28:08.380Z,15.20
2022-07-26T13:30:37.328Z,15.90
2022-07-26T13:33:04.581Z,15.40
2022-07-26T13:35:32.876Z,14.70
2022-07-26T13:37:59.475Z,14.60
2022-07-26T13:40:31.462Z,14.90
2022-07-26T13:42:59.069Z,14.80
2022-07-26T13:45:28.880Z,15.30
2022-07-26T13:47:57.198Z,15.90
2022-07-26T13:50:25.730Z,15.80
2022-07-26T13:52:52.487Z,16.70
2022-07-26T13:55:19.298Z,15.30
2022-07-26T13:57:53.064Z,15.80
2022-07-26T14:00:28.809Z,17.60
2022-07-26T14:02:57.796Z,17.70
2022-07-26T14:05:25.685Z,16.40
2022-07-26T14:07:52.695Z,16.30
2022-07-26T14:10:20.878Z,17.20
2022-07-26T14:12:48.853Z,17.70
2022-07-26T14:15:21.607Z,18.80
2022-07-26T14:17:51.183Z,18.80
2022-07-26T14:20:18.239Z,16.80
2022-07-26T14:22:45.355Z,19.10
2022-07-26T14:25:12.754Z,19.60
2022-07-26T14:27:39.608Z,17.50
2022-07-26T14:30:07.160Z,20.00
2022-07-26T14:32:33.819Z,20.80
2022-07-26T14:35:00.502Z,19.40
2022-07-26T14:37:43.117Z,18.70
2022-07-26T14:40:15.702Z,20.40
2022-07-26T14:42:43.466Z,20.90
2022-07-26T14:45:11.389Z,22.80
2022-07-26T14:47:38.431Z,21.40
2022-07-26T14:50:07.733Z,22.00
2022-07-26T14:52:55.241Z,25.70
2022-07-26T14:55:25.350Z,23.30
2022-07-26T14:57:52.618Z,26.00
2022-07-26T15:00:19.705Z,25.40
2022-07-26T15:02:48.250Z,27.40
2022-07-26T15:05:17.057Z,27.50
2022-07-26T15:07:44.403Z,26.10
2022-07-26T15:10:12.956Z,24.50
2022-07-26T15:12:40.159Z,25.60
2022-07-26T15:15:08.443Z,27.00
2022-07-26T15:17:35.275Z,25.00
2022-07-26T15:20:02.736Z,26.60
2022-07-26T15:22:29.588Z,22.70
2022-07-26T15:24:56.343Z,24.60
2022-07-26T15:27:23.018Z,27.00
2022-07-26T15:29:49.619Z,25.50
2022-07-26T15:32:16.332Z,31.10
2022-07-26T15:34:43.111Z,17.40
2022-07-26T15:37:09.693Z,10.30
2022-07-26T15:39:36.196Z,8.00
2022-07-26T15:42:07.360Z,6.10
2022-07-26T15:44:34.811Z,5.20
2022-07-26T15:47:01.866Z,4.40
2022-07-26T15:49:30.697Z,4.90
2022-07-26T15:51:57.618Z,5.40
2022-07-26T15:54:24.287Z,5.70
2022-07-26T15:56:50.969Z,5.30
2022-07-26T15:59:18.050Z,6.00
2022-07-26T16:01:44.965Z,6.10
2022-07-26T16:04:12.006Z,6.70
2022-07-26T16:06:39.444Z,7.50
2022-07-26T16:09:16.711Z,6.70
2022-07-26T16:11:44.505Z,6.60
2022-07-26T16:14:11.941Z,5.90
2022-07-26T16:16:38.944Z,6.70
2022-07-26T16:19:05.846Z,6.80
2022-07-26T16:21:32.693Z,6.30
2022-07-26T16:24:04.401Z,7.40
2022-07-26T16:26:33.763Z,6.90
2022-07-26T16:29:00.755Z,7.90
2022-07-26T16:31:27.815Z,7.90
2022-07-26T16:33:54.813Z,8.90
2022-07-26T16:36:21.360Z,8.30
2022-07-26T16:38:48.130Z,9.10
2022-07-26T16:41:14.714Z,9.20
2022-07-26T16:43:41.590Z,8.80
2022-07-26T16:46:08.441Z,9.80
2022-07-26T16:48:35.069Z,9.90
2022-07-26T16:51:02.195Z,10.00
2022-07-26T16:53:28.991Z,10.10
2022-07-26T16:55:55.663Z,9.10
2022-07-26T16:58:22.671Z,9.10
2022-07-26T17:00:49.277Z,9.80
2022-07-26T17:03:16.284Z,9.60
2022-07-26T17:05:43.841Z,11.00
2022-07-26T17:08:10.901Z,12.40
2022-07-26T17:10:37.976Z,12.20
2022-07-26T17:13:04.921Z,12.80
2022-07-26T17:15:31.751Z,12.20
2022-07-26T17:17:58.603Z,13.20
2022-07-26T17:20:26.369Z,12.00
2022-07-26T17:22:53.733Z,11.10
2022-07-26T17:25:20.582Z,10.70
2022-07-26T17:27:47.161Z,10.10
2022-07-26T17:30:14.378Z,10.00
2022-07-26T17:32:41.171Z,10.10
2022-07-26T17:35:09.359Z,9.80
2022-07-26T17:37:36.058Z,10.30
2022-07-26T17:40:05.253Z,9.70
2022-07-26T17:42:34.969Z,9.30
2022-07-26T17:45:01.914Z,9.80
2022-07-26T17:47:30.594Z,8.80
2022-07-26T17:50:34.050Z,9.50
2022-07-26T17:52:50.303Z,9.90
2022-07-26T17:55:17.721Z,11.00
2022-07-26T17:57:44.447Z,11.60
2022-07-26T18:00:11.782Z,11.90
2022-07-26T18:02:38.321Z,14.40
2022-07-26T18:05:05.486Z,14.00
2022-07-26T18:07:32.249Z,14.90
2022-07-26T18:09:58.861Z,14.50
2022-07-26T18:12:25.428Z,14.70
2022-07-26T18:14:52.145Z,15.80
2022-07-26T18:17:18.790Z,16.10
2022-07-26T18:19:45.312Z,16.60
2022-07-26T18:22:11.974Z,15.70
2022-07-26T18:24:38.468Z,15.90
2022-07-26T18:27:05.055Z,14.60
2022-07-26T18:29:32.111Z,14.90
2022-07-26T18:31:59.069Z,15.10
2022-07-26T18:34:26.426Z,14.50
2022-07-26T18:36:53.219Z,15.50
2022-07-26T18:39:19.895Z,15.60
2022-07-26T18:41:46.503Z,16.00
2022-07-26T18:44:13.239Z,17.60
2022-07-26T18:46:39.980Z,16.10
2022-07-26T18:49:07.147Z,17.00
2022-07-26T18:51:33.960Z,15.60
2022-07-26T18:54:00.822Z,15.80
2022-07-26T18:56:27.557Z,15.70
2022-07-26T18:58:54.308Z,17.50
2022-07-26T19:01:20.983Z,17.80
2022-07-26T19:03:47.993Z,16.90
2022-07-26T19:06:15.056Z,16.10
2022-07-26T19:08:41.702Z,16.10
2022-07-26T19:11:08.265Z,14.80
2022-07-26T19:13:34.866Z,15.90
2022-07-26T19:16:01.678Z,16.10
2022-07-26T19:18:28.591Z,14.30
2022-07-26T19:20:55.539Z,17.20
2022-07-26T19:23:22.103Z,16.80
2022-07-26T19:25:48.795Z,18.70
2022-07-26T19:28:15.468Z,17.60
2022-07-26T19:30:42.301Z,18.30
2022-07-26T19:33:08.958Z,18.30
2022-07-26T19:35:35.490Z,17.50
2022-07-26T19:38:02.214Z,16.60
2022-07-26T19:40:28.867Z,16.30
2022-07-26T19:42:55.440Z,15.70
2022-07-26T19:45:22.211Z,14.90
2022-07-26T19:47:49.736Z,15.90
2022-07-26T19:50:16.532Z,16.40
2022-07-26T19:52:43.059Z,15.60
2022-07-26T19:55:10.028Z,15.80
2022-07-26T19:57:37.441Z,15.20
2022-07-26T20:00:08.495Z,15.60
2022-07-26T20:02:35.724Z,15.50
2022-07-26T20:05:05.178Z,16.00
2022-07-26T20:07:31.823Z,15.30
2022-07-26T20:09:58.487Z,16.30
2022-07-26T20:12:25.292Z,16.60
2022-07-26T20:14:51.890Z,17.80
2022-07-26T20:17:18.589Z,18.00
2022-07-26T20:19:45.329Z,19.30
2022-07-26T20:22:12.060Z,20.00
2022-07-26T20:24:38.583Z,19.80
2022-07-26T20:27:06.898Z,20.20
2022-07-26T20:29:34.002Z,19.80
2022-07-26T20:32:00.784Z,18.70
2022-07-26T20:34:27.816Z,19.60
2022-07-26T20:36:54.417Z,18.80
2022-07-26T20:39:21.168Z,19.70
2022-07-26T20:41:47.976Z,19.30
2022-07-26T20:44:14.511Z,18.40
2022-07-26T20:46:41.218Z,18.00
2022-07-26T20:49:08.875Z,16.60
2022-07-26T20:51:36.585Z,15.70
2022-07-26T20:54:03.745Z,17.70
2022-07-26T20:56:30.381Z,17.00
2022-07-26T20:58:57.161Z,16.80
2022-07-26T21:01:24.042Z,18.00
2022-07-26T21:03:50.980Z,17.40
2022-07-26T21:06:17.675Z,19.10
2022-07-26T21:08:44.237Z,19.70
2022-07-26T21:11:11.059Z,18.20
2022-07-26T21:13:37.608Z,20.00
2022-07-26T21:16:04.479Z,18.60
2022-07-26T21:18:36.404Z,22.70
2022-07-26T21:21:03.161Z,32.10
2022-07-26T21:23:30.008Z,31.70
2022-07-26T21:26:00.630Z,29.00
2022-07-26T21:28:28.282Z,30.70
2022-07-26T21:30:55.668Z,28.30
2022-07-26T21:33:22.308Z,28.90
2022-07-26T21:35:48.871Z,28.70
2022-07-26T21:38:15.388Z,31.30
2022-07-26T21:40:41.931Z,31.20
2022-07-26T21:43:08.679Z,31.90
2022-07-26T21:45:35.285Z,31.00
2022-07-26T21:48:02.116Z,31.50
2022-07-26T21:50:28.809Z,29.40
2022-07-26T21:52:55.454Z,30.30
2022-07-26T21:55:22.300Z,37.70
2022-07-26T21:57:49.044Z,31.00
2022-07-26T22:00:16.934Z,30.80
2022-07-26T22:02:44.149Z,30.20
2022-07-26T22:05:11.144Z,29.20
2022-07-26T22:07:37.876Z,29.40
2022-07-26T22:10:05.095Z,28.80
2022-07-26T22:12:31.665Z,29.40
2022-07-26T22:14:58.201Z,28.70
2022-07-26T22:17:25.165Z,27.30
2022-07-26T22:19:51.810Z,27.70
2022-07-26T22:22:18.447Z,26.20
2022-07-26T22:24:45.301Z,25.80
2022-07-26T22:27:11.949Z,27.10
2022-07-26T22:29:40.172Z,26.10
2022-07-26T22:32:07.041Z,26.90
2022-07-26T22:34:33.967Z,22.10
2022-07-26T22:37:00.767Z,21.20
2022-07-26T22:39:27.508Z,20.30
2022-07-26T22:42:14.227Z,20.20
2022-07-26T22:44:40.928Z,21.80
2022-07-26T22:47:07.606Z,20.50
2022-07-26T22:49:34.347Z,20.00
2022-07-26T22:52:01.064Z,21.40
2022-07-26T22:54:27.746Z,21.80
2022-07-26T22:56:54.901Z,21.30
2022-07-26T22:59:21.777Z,20.80
2022-07-26T23:01:48.424Z,22.70
2022-07-26T23:04:15.235Z,21.70
2022-07-26T23:06:43.118Z,20.40
2022-07-26T23:09:11.658Z,21.20
2022-07-26T23:11:38.898Z,21.30
2022-07-26T23:14:05.538Z,20.40
2022-07-26T23:16:32.217Z,20.50
2022-07-26T23:18:59.044Z,20.70
2022-07-26T23:21:26.055Z,20.00
2022-07-26T23:23:52.550Z,18.80
2022-07-26T23:26:19.557Z,20.00
2022-07-26T23:28:46.488Z,21.90
2022-07-26T23:31:13.227Z,21.30
2022-07-26T23:33:52.292Z,20.90
2022-07-26T23:36:28.873Z,21.30
2022-07-26T23:38:57.409Z,21.10
2022-07-26T23:41:24.585Z,21.80
2022-07-26T23:43:52.461Z,21.30
2022-07-26T23:46:19.060Z,20.00
2022-07-26T23:48:46.604Z,20.70
2022-07-26T23:51:13.787Z,21.10
2022-07-26T23:53:40.339Z,21.30
2022-07-26T23:56:06.936Z,22.20
2022-07-26T23:58:33.487Z,23.20
